• Join FlightAware (Why Join?)
  • Login
  • US Flag 
04:49PM EDT


 

Airport Tracker/Info


-or-


 

Live Flight TrackerFlight Track Log ✈ XOJ578 ✈ 04-Jun-2013 ✈ KPSP - KVNY

Flight Track Log - Related Links

Times and Time Zones

All times are in EDT time to prevent confusion due to time zone crossing. See the XOJ578 flight status page for this flight to view local times or setup timezone preferences in your user account.

Time Position Orientation Groundspeed Altitude Reporting Facility
EDT Latitude Longitude Course Direction KTS MPH feet Rate Location/Type
12:21AM 33.8833 -116.5500 331° Northwest 193 222 6,100  Level Southern California TRACON
12:22AM 33.9367 -116.5625 349° North 219 252 9,800 2,940 Climbing Los Angeles Center
12:23AM 34.0175 -116.5419 12° North 292 336 12,300 2,940 Climbing Los Angeles Center
12:24AM 34.1300 -116.5272 North 349 402 15,900 1,860 Climbing Los Angeles Center
12:25AM 34.2150 -116.5647 340° North 379 436 16,200 120 Climbing Los Angeles Center
12:26AM 34.2708 -116.6786 301° West 400 460 16,200 -120 Level Los Angeles Center
12:27AM 34.3031 -116.8031 287° West 390 449 16,000 -120 Descending Los Angeles Center
12:28AM 34.3422 -116.9469 288° West 377 434 16,000  Level Los Angeles Center
12:29AM 34.3744 -117.0700 288° West 383 441 16,000  Level Los Angeles Center
12:30AM 34.4069 -117.1936 288° West 385 443 16,000  Level Los Angeles Center
12:31AM 34.4394 -117.3186 288° West 388 447 16,000  Level Los Angeles Center
12:32AM 34.4725 -117.4472 287° West 398 458 16,000  Level Los Angeles Center
12:33AM 34.5056 -117.5731 288° West 390 449 16,000  Level Los Angeles Center
12:34AM 34.5378 -117.7014 287° West 396 456 16,000 -540 Level Los Angeles Center
12:35AM 34.5711 -117.8264 288° West 390 449 14,800 -1,380 Descending Los Angeles Center
12:36AM 34.6097 -117.9778 287° West 389 448 12,900 -1,680 Descending Los Angeles Center
12:37AM 34.6050 -118.1019 267° West 376 433 11,400 -1,620 Descending Los Angeles Center
12:38AM 34.5864 -118.2322 260° West 328 377 9,700 -1,500 Descending Los Angeles Center
12:39AM 34.5717 -118.3278 259° West 294 338 8,400 -840 Descending Los Angeles Center
12:40AM 34.5539 -118.4169 256° West 276 318 8,000 -240 Descending Los Angeles Center
12:41AM 34.5375 -118.4847 254° West 267 307 8,000 -840 Level Los Angeles Center
12:42AM 34.4622 -118.5314 207° Southwest 261 300 6,400 -1,620 Descending Los Angeles Center
12:44AM 34.3933 -118.5128 167° South 251 289 4,800 -1,440 Descending Los Angeles Center
12:45AM 34.3317 -118.5031 173° South 228 262 3,500 -1,260 Descending Los Angeles Center
12:46AM 34.2808 -118.4975 175° South 195 224 2,300 -1,080 Descending Los Angeles Center
12:47AM 34.2369 -118.4944 177° South 147 169 1,300 -600 Descending Los Angeles Center
12:48AM 34.2022 -118.4900 174° South 140 161 1,200 -120 Descending Los Angeles Center
12:50AM 34.2000 -118.4833 180° South  Level FlightAware Approximate